首页
METAR-TAF:

METAR-TAF

机场 :

公主港國際機場

普林塞薩港, 菲律宾

纬度: 09-44-32N, 经度: 118-45-31E, 海拔: 22米

当前天气观测

该预报发布于36分钟前的04:00 UTC
风速10节,风向
温度 34°C
湿度 63%
气压 1010 hPa
能见度10公里或以上
少量云层高于1900英尺

METAR: RPVP 230400Z 09010KT 9999 FEW019 34/26 Q1010 RMK A2983

时间: 12:36 (04:36 UTC)

预报

该预报发布于5小时和36分钟前的23:00 UTC
预报有效从23日的 00点(UTC)到 23日的 24点(UTC)
风速9节,风向东转东南
能见度10公里或以上
少量云层高于1900英尺
短暂存在
从 23日的 03点(UTC)到 23日的 09点(UTC)
风速10节,风向东转东北
少量云层高于1700英尺, 积雨云.
散云层高于8000英尺

TAF: RPVP 222300Z 2300/2324 12009KT 9999 FEW019 TEMPO 2303/2309 07010KT FEW017CB SCT080

超过4000个机场的气象观测和天气预报(METAR&TAF报告)。

可查询的气象台以黄色和红色小点在地图上表示。

将鼠标移到小点上方,可查看气象台名称。

然后点击查看天气观测和预报。

如需切换地图:点击带黑十字的绿色按钮放大地图;点击带横线的绿色按钮缩小地图;或者点击绿色箭头查看邻近地区的地图。


METAR-TAF: